KMTJ

Montrose Regional Airport

Montrose, Colorado, USA
METAR KMTJ 141253Z AUTO 13010KT 10SM CLR 16/02 A3013 RMK AO2 SLP112 T01610022
Observed Flight Rules
Aug-14 @ 12:53 UTC (48 minutes ago) Visual Flight Rules
Wind Visibility Clouds
130° at 10 knots 10 miles
  • Clear skies
Temperatures Readings
Current 16°C / 61°F
Dewpoint 2°C / 36°F
Humidity 39%
Altimeter 30.13" Hg
Pressure 1011.2 hPa
Elevation 1750
METAR KMTJ 141253Z AUTO 13010KT 10SM CLR 16/02 A3013 RMK AO2 SLP112 T01610022
Observed Flight Rules
Aug-14 @ 12:53 UTC
(48 minutes ago)
VFR
Wind Visibility
130° at 10 knots 10 miles
Clouds
  • Clear skies
Temperature Dewpoint
16°C / 61°F 2°C / 36°F
Humidity Altimeter Pressure
39% 30.13" Hg 1011.2 hPa